Humidity-temperature Sensor

Selected Measurement Type: Air Temperature

 
Air Temperature [°C]     6 entries per hour
Showing data from 3/6/2016 (00:00:00 Z) to 3/3/2016 (00:01:00 Z)
Previous Next [ Day | 3-Days | 7-Days ]
First Last
Prev [ Day | 3-Days | 7-Days ] Next
First Last

Start Time:     :
End Time:     :     
Time (in GMT) :00 :50 :40 :30 :20 :10
Previous Next [ Day | 3-Days | 7-Days ]
First Last
Prev [ Day | 3-Days | 7-Days ] Next
First Last


123 => good data
MM => data is determined as missing
-- => data not received/configured
Back to Top Back to Top
3/6/2016 00:00 to 23:10 29.30 29.39 29.37 29.45 29.53 29.60
3/5/2016 23:00 to 22:10 29.57 29.64 29.58 29.54 29.67 29.62
3/5/2016 22:00 to 21:10 29.66 29.71 29.65 29.72 29.80 29.63
3/5/2016 21:00 to 20:10 29.66 29.59 29.58 29.51 29.57 29.47
3/5/2016 20:00 to 19:10 29.48 29.39 29.40 29.34 29.33 29.29
3/5/2016 19:00 to 18:10 29.23 29.30 29.29 29.31 29.25 29.28
3/5/2016 18:00 to 17:10 29.32 29.23 29.25 29.21 29.23 29.19
3/5/2016 17:00 to 16:10 29.21 29.26 29.35 29.37 29.27 29.29
3/5/2016 16:00 to 15:10 29.19 29.18 29.13 29.10 29.25 29.47
3/5/2016 15:00 to 14:10 29.48 29.41 29.40 29.40 29.43 29.29
3/5/2016 14:00 to 13:10 29.32 29.37 29.14 29.15 28.94 28.76
3/5/2016 13:00 to 12:10 28.61 28.60 28.46 28.45 28.52 28.49
3/5/2016 12:00 to 11:10 28.44 28.42 28.42 28.44 28.48 28.33
3/5/2016 11:00 to 10:10 28.35 28.35 28.34 28.39 28.51 28.41
3/5/2016 10:00 to 9:10 28.41 28.41 28.45 28.48 28.43 28.44
3/5/2016 09:00 to 8:10 28.52 28.43 28.46 28.39 28.44 28.42
3/5/2016 08:00 to 7:10 28.46 28.44 28.58 28.45 28.52 28.41
3/5/2016 07:00 to 6:10 28.54 28.52 28.59 28.52 28.58 28.58
3/5/2016 06:00 to 5:10 28.66 28.60 28.65 28.66 28.61 28.69
3/5/2016 05:00 to 4:10 28.73 28.73 28.75 28.72 28.82 28.78
3/5/2016 04:00 to 3:10 28.72 28.75 28.82 28.81 28.83 28.84
3/5/2016 03:00 to 2:10 28.75 28.68 28.76 28.75 28.66 28.69
3/5/2016 02:00 to 1:10 28.68 28.69 28.68 28.69 28.68 28.66
3/5/2016 01:00 to 0:10 28.70 28.65 28.67 28.66 28.63 28.75
3/5/2016 00:00 to 23:10 28.65 28.68 28.75 28.66 28.60 28.57
3/4/2016 23:00 to 22:10 28.59 28.63 28.71 28.69 28.80 28.73
3/4/2016 22:00 to 21:10 28.78 28.80 28.79 28.77 28.73 28.68
3/4/2016 21:00 to 20:10 28.71 28.76 28.72 28.78 28.79 28.83
3/4/2016 20:00 to 19:10 28.89 28.84 28.85 28.89 28.92 28.90
3/4/2016 19:00 to 18:10 28.91 28.98 28.95 29.15 29.07 29.10
3/4/2016 18:00 to 17:10 29.06 29.12 29.08 29.08 29.06 29.03
3/4/2016 17:00 to 16:10 29.02 28.98 29.06 28.98 29.03 29.05
3/4/2016 16:00 to 15:10 29.09 29.05 28.99 28.92 28.64 28.87
3/4/2016 15:00 to 14:10 28.86 28.80 28.76 28.72 28.70 28.61
3/4/2016 14:00 to 13:10 28.60 28.56 28.60 28.54 28.44 28.70
3/4/2016 13:00 to 12:10 28.51 28.50 28.45 28.43 28.37 28.37
3/4/2016 12:00 to 11:10 28.35 28.28 28.30 28.26 28.31 28.32
3/4/2016 11:00 to 10:10 28.30 28.43 28.44 28.41 28.36 28.38
3/4/2016 10:00 to 9:10 28.42 28.39 28.42 28.40 28.47 28.38
3/4/2016 09:00 to 8:10 28.44 28.45 28.43 28.42 28.40 28.47
3/4/2016 08:00 to 7:10 28.42 28.43 28.46 28.42 28.44 28.49
3/4/2016 07:00 to 6:10 28.49 28.38 28.49 28.48 28.49 28.63
3/4/2016 06:00 to 5:10 28.59 28.56 28.59 28.54 28.60 28.61
3/4/2016 05:00 to 4:10 28.65 28.59 28.66 28.59 28.62 28.65
3/4/2016 04:00 to 3:10 28.65 28.64 28.67 28.59 28.65 28.65
3/4/2016 03:00 to 2:10 28.61 28.64 28.62 28.65 28.65 28.68
3/4/2016 02:00 to 1:10 28.66 28.63 28.61 28.64 28.59 28.59
3/4/2016 01:00 to 0:10 28.61 28.57 28.59 28.56 28.60 28.63
3/4/2016 00:00 to 23:10 28.70 28.66 28.81 28.89 28.91 28.82
3/3/2016 23:00 to 22:10 28.86 28.87 28.86 28.82 28.81 28.79
3/3/2016 22:00 to 21:10 28.78 28.75 28.72 28.72 28.65 28.74
3/3/2016 21:00 to 20:10 28.75 28.77 28.76 28.75 28.75 28.73
3/3/2016 20:00 to 19:10 28.78 28.82 28.74 28.78 28.70 28.75
3/3/2016 19:00 to 18:10 28.71 28.78 28.85 28.79 28.79 28.81
3/3/2016 18:00 to 17:10 28.79 28.73 28.82 28.77 28.83 28.76
3/3/2016 17:00 to 16:10 28.82 28.80 28.80 28.97 28.81 28.84
3/3/2016 16:00 to 15:10 29.07 28.85 29.04 28.70 28.62 28.80
3/3/2016 15:00 to 14:10 28.90 28.64 28.69 28.64 28.47 28.45
3/3/2016 14:00 to 13:10 28.43 28.46 28.55 28.65 28.40 28.40
3/3/2016 13:00 to 12:10 28.30 28.27 28.21 28.18 28.22 28.21
3/3/2016 12:00 to 11:10 28.25 28.27 28.23 28.25 28.31 28.19
3/3/2016 11:00 to 10:10 28.22 28.23 28.27 28.29 28.34 28.23
3/3/2016 10:00 to 9:10 28.38 28.27 28.39 28.36 28.35 28.25
3/3/2016 09:00 to 8:10 28.32 28.24 28.27 28.30 28.29 28.31
3/3/2016 08:00 to 7:10 28.31 28.35 28.34 28.40 28.31 28.33
3/3/2016 07:00 to 6:10 28.37 28.42 28.45 28.41 28.49 28.46
3/3/2016 06:00 to 5:10 28.47 28.40 28.54 28.49 28.53 28.57
3/3/2016 05:00 to 4:10 28.54 28.61 28.53 28.53 28.44 28.48
3/3/2016 04:00 to 3:10 28.52 28.53 28.53 28.49 28.52 28.49
3/3/2016 03:00 to 2:10 28.51 28.49 28.40 28.31 28.29 28.13
3/3/2016 02:00 to 1:10 28.03 27.93 27.87 27.93 27.95 27.98
3/3/2016 01:00 to 0:10 27.95 27.76 27.66 27.59 27.53 27.40